Time;durP1;ratioP1;P1;durP2;ratioP2;P2;SDS_P1;SDS_P2;PMS_P1;PMS_P2;Temp;Humidity;BMP_temperature;BMP_pressure;BME280_temperature;BME280_humidity;BME280_pressure;Samples;Min_cycle;Max_cycle;Signal;HPM_P1;HPM_P2
2023/07/09 00:02:15;;;;;;;6.90;4.53;;;21.90;99.90;;;;;;5094388;28;20035;-73
2023/07/09 00:04:41;;;;;;;7.25;4.40;;;21.90;99.90;;;;;;5104958;28;20039;-73
2023/07/09 00:07:23;;;;;;;4.53;3.85;;;21.80;99.90;;;;;;5086087;28;20489;-73
2023/07/09 00:09:50;;;;;;;7.10;4.63;;;21.80;99.90;;;;;;5102928;28;20050;-72
2023/07/09 00:12:17;;;;;;;7.18;5.20;;;21.80;99.90;;;;;;5086385;28;20086;-72
2023/07/09 00:14:44;;;;;;;8.65;5.50;;;21.70;99.90;;;;;;5103633;28;20092;-72
2023/07/09 00:17:25;;;;;;;6.57;4.55;;;21.70;99.90;;;;;;5104422;28;20050;-72
2023/07/09 00:19:51;;;;;;;7.63;5.00;;;21.70;99.90;;;;;;5104207;28;20040;-72
2023/07/09 00:22:18;;;;;;;10.13;5.72;;;21.60;99.90;;;;;;5103777;28;20039;-73
2023/07/09 00:24:47;;;;;;;7.50;5.03;;;21.60;99.90;;;;;;5086108;28;20039;-73
2023/07/09 00:27:14;;;;;;;6.70;4.82;;;21.50;99.90;;;;;;5104165;28;20096;-72
2023/07/09 00:29:41;;;;;;;10.82;6.13;;;21.50;99.90;;;;;;5103162;28;20119;-73
2023/07/09 00:32:15;;;;;;;6.68;4.75;;;21.50;99.90;;;;;;5104211;28;20036;-72
2023/07/09 00:34:41;;;;;;;7.45;4.90;;;21.50;99.90;;;;;;5104305;28;20135;-72
2023/07/09 00:37:12;;;;;;;6.00;4.45;;;21.40;99.90;;;;;;5103519;28;20090;-72
2023/07/09 00:39:40;;;;;;;7.60;4.80;;;21.40;99.90;;;;;;5104689;28;20043;-72
2023/07/09 00:42:10;;;;;;;8.80;5.80;;;21.40;99.90;;;;;;5104423;28;20119;-73
2023/07/09 00:44:35;;;;;;;8.32;4.78;;;21.30;99.90;;;;;;5103375;28;20051;-72
2023/07/09 00:47:18;;;;;;;9.52;5.50;;;21.40;99.90;;;;;;5104721;28;20123;-73
2023/07/09 00:49:47;;;;;;;8.18;5.55;;;21.30;99.90;;;;;;5085722;28;20058;-72
2023/07/09 00:52:35;;;;;;;8.32;4.97;;;21.30;99.90;;;;;;5104277;28;20036;-72
2023/07/09 00:55:05;;;;;;;6.28;4.97;;;21.30;99.90;;;;;;5088848;28;20121;-72
2023/07/09 00:57:31;;;;;;;8.65;5.80;;;21.30;99.90;;;;;;5103942;28;20086;-73
2023/07/09 01:00:09;;;;;;;8.18;4.90;;;21.30;99.90;;;;;;5103506;28;20040;-72
2023/07/09 01:02:39;;;;;;;7.75;5.15;;;21.30;99.90;;;;;;5104307;28;20147;-73
2023/07/09 01:05:06;;;;;;;9.10;5.35;;;21.30;99.90;;;;;;5086173;28;20047;-72
2023/07/09 01:07:31;;;;;;;8.65;5.90;;;21.30;99.90;;;;;;5103884;28;20043;-73
2023/07/09 01:09:57;;;;;;;7.07;5.15;;;21.30;99.90;;;;;;5104210;28;20085;-72
2023/07/09 01:12:24;;;;;;;8.43;5.38;;;21.30;99.90;;;;;;5117002;22;20091;-72
2023/07/09 01:14:52;;;;;;;6.28;4.55;;;21.30;99.90;;;;;;5044490;28;20044;-72
2023/07/09 01:17:19;;;;;;;6.90;5.22;;;21.30;99.90;;;;;;5063267;28;20071;-72
2023/07/09 01:19:50;;;;;;;9.93;6.38;;;21.30;99.90;;;;;;5063533;28;20104;-72
2023/07/09 01:22:18;;;;;;;6.57;4.90;;;21.30;99.90;;;;;;5062704;28;20052;-72
2023/07/09 01:24:47;;;;;;;8.65;4.95;;;21.30;99.90;;;;;;5063316;28;20032;-72
2023/07/09 01:27:13;;;;;;;9.23;5.32;;;21.30;99.90;;;;;;5063356;28;20044;-72
2023/07/09 01:29:40;;;;;;;8.43;5.40;;;21.30;99.90;;;;;;5062434;28;20098;-72
2023/07/09 01:32:06;;;;;;;6.55;4.15;;;21.30;99.90;;;;;;5065216;28;20040;-72
2023/07/09 01:34:33;;;;;;;9.38;6.07;;;21.30;99.90;;;;;;5067293;28;20735;-72
2023/07/09 01:36:58;;;;;;;6.97;4.30;;;21.30;99.90;;;;;;5067567;28;20085;-72
2023/07/09 01:39:28;;;;;;;10.10;5.28;;;21.20;99.90;;;;;;5066975;28;20507;-72
2023/07/09 01:41:54;;;;;;;7.22;4.78;;;21.20;99.90;;;;;;5049111;28;20052;-72
2023/07/09 01:44:19;;;;;;;8.07;4.90;;;21.20;99.90;;;;;;5065999;28;20060;-72
2023/07/09 01:46:45;;;;;;;7.53;4.88;;;21.20;99.90;;;;;;5049228;28;20414;-72
2023/07/09 01:49:11;;;;;;;6.90;5.40;;;21.10;99.90;;;;;;5053240;28;20033;-72
2023/07/09 01:51:38;;;;;;;5.95;4.80;;;21.10;99.90;;;;;;5063259;28;20044;-72
2023/07/09 01:54:04;;;;;;;8.40;5.20;;;21.10;99.90;;;;;;5050031;28;20037;-72
2023/07/09 01:56:30;;;;;;;7.97;5.88;;;21.00;99.90;;;;;;5049211;28;20056;-72
2023/07/09 01:59:00;;;;;;;6.38;4.78;;;21.00;99.90;;;;;;5066128;28;20029;-72
2023/07/09 02:01:27;;;;;;;7.20;4.50;;;20.90;99.90;;;;;;5045907;28;20051;-72
2023/07/09 02:03:53;;;;;;;7.60;4.93;;;20.90;99.90;;;;;;5050781;28;20041;-72
2023/07/09 02:06:19;;;;;;;7.60;5.05;;;20.90;99.90;;;;;;5067035;28;20051;-72
2023/07/09 02:08:45;;;;;;;7.32;5.22;;;20.90;99.90;;;;;;5066347;28;20072;-72
2023/07/09 02:11:11;;;;;;;6.35;4.90;;;20.80;99.90;;;;;;5029963;28;20135;-73
2023/07/09 02:13:36;;;;;;;5.32;4.20;;;20.80;99.90;;;;;;5055152;28;20457;-70
2023/07/09 02:16:02;;;;;;;8.73;5.50;;;20.80;99.90;;;;;;5065029;28;20445;-70
2023/07/09 02:18:29;;;;;;;7.70;5.07;;;20.80;99.90;;;;;;5048581;28;20040;-70
2023/07/09 02:20:54;;;;;;;8.75;5.00;;;20.80;99.90;;;;;;5048615;28;20037;-70
2023/07/09 02:23:25;;;;;;;8.57;5.28;;;20.70;99.90;;;;;;5047963;28;20045;-70
2023/07/09 02:25:51;;;;;;;10.77;5.30;;;20.70;99.90;;;;;;5066486;28;20067;-70
2023/07/09 02:28:16;;;;;;;9.73;5.97;;;20.70;99.90;;;;;;5066199;28;20494;-70
2023/07/09 02:30:42;;;;;;;8.10;4.93;;;20.70;99.90;;;;;;5064998;28;20067;-70
2023/07/09 02:33:07;;;;;;;8.55;5.95;;;20.60;99.90;;;;;;5031336;28;20037;-70
2023/07/09 02:35:35;;;;;;;8.60;6.03;;;20.50;99.90;;;;;;5066242;28;20406;-70
2023/07/09 02:38:01;;;;;;;12.85;6.65;;;20.50;99.90;;;;;;5065899;28;20041;-70
2023/07/09 02:40:27;;;;;;;7.53;5.35;;;20.50;99.90;;;;;;5048240;28;20498;-70
2023/07/09 02:42:53;;;;;;;9.73;6.00;;;20.40;99.90;;;;;;5047670;28;20044;-70
2023/07/09 02:45:18;;;;;;;7.28;5.30;;;20.40;99.90;;;;;;5064189;28;20044;-70
2023/07/09 02:47:44;;;;;;;7.55;5.30;;;20.40;99.90;;;;;;5065777;28;20024;-70
2023/07/09 02:50:09;;;;;;;8.63;5.78;;;20.30;99.90;;;;;;5054635;28;20090;-70
2023/07/09 02:52:35;;;;;;;8.27;5.03;;;20.30;99.90;;;;;;5025802;28;20687;-70
2023/07/09 02:55:01;;;;;;;10.00;5.70;;;20.30;99.90;;;;;;5065296;28;20044;-71
2023/07/09 02:57:26;;;;;;;7.03;5.13;;;20.30;99.90;;;;;;5066137;28;20165;-70
2023/07/09 02:59:52;;;;;;;7.53;4.88;;;20.30;99.90;;;;;;5064650;28;20036;-70
2023/07/09 03:02:18;;;;;;;9.68;6.47;;;20.20;99.90;;;;;;5044350;28;20174;-70
2023/07/09 03:04:43;;;;;;;7.13;5.07;;;20.20;99.90;;;;;;5065384;28;20052;-70
2023/07/09 03:07:09;;;;;;;8.93;5.78;;;20.20;99.90;;;;;;5065737;28;20041;-70
2023/07/09 03:09:34;;;;;;;7.78;5.78;;;20.10;99.90;;;;;;5065158;28;20059;-70
2023/07/09 03:12:00;;;;;;;7.35;6.30;;;20.10;99.90;;;;;;5065066;28;20045;-71
2023/07/09 03:14:26;;;;;;;9.43;5.78;;;20.10;99.90;;;;;;5046570;28;20051;-70
2023/07/09 03:16:51;;;;;;;8.77;5.45;;;20.10;99.90;;;;;;5065024;28;20062;-70
2023/07/09 03:19:17;;;;;;;8.32;5.28;;;20.10;99.90;;;;;;5046786;28;20043;-70
2023/07/09 03:21:43;;;;;;;8.48;6.28;;;20.10;99.90;;;;;;5046962;28;20438;-70
2023/07/09 03:24:09;;;;;;;11.27;6.00;;;20.10;99.90;;;;;;5064929;28;20143;-69
2023/07/09 03:26:34;;;;;;;6.22;4.95;;;20.10;99.90;;;;;;5036013;28;20044;-70
2023/07/09 03:29:00;;;;;;;8.60;5.80;;;20.10;99.90;;;;;;5046117;28;20090;-71
2023/07/09 03:31:26;;;;;;;9.50;5.50;;;20.10;99.90;;;;;;5065047;28;20036;-70
2023/07/09 03:33:52;;;;;;;8.02;5.95;;;20.00;99.90;;;;;;5064704;28;20642;-70
2023/07/09 03:36:19;;;;;;;9.30;6.25;;;20.00;99.90;;;;;;5046932;28;20047;-70
2023/07/09 03:38:45;;;;;;;8.52;5.93;;;20.00;99.90;;;;;;5065227;28;20127;-70
2023/07/09 03:41:11;;;;;;;12.00;6.15;;;20.00;99.90;;;;;;5064319;28;20040;-71
2023/07/09 03:43:36;;;;;;;8.93;6.00;;;20.00;99.90;;;;;;5046241;28;20039;-70
2023/07/09 03:46:02;;;;;;;8.45;6.40;;;20.00;99.90;;;;;;5064652;28;20040;-71
2023/07/09 03:48:28;;;;;;;6.38;4.78;;;20.00;99.90;;;;;;5064950;28;20037;-70
2023/07/09 03:50:54;;;;;;;10.65;6.63;;;20.00;99.90;;;;;;5064211;28;20059;-70
2023/07/09 03:53:19;;;;;;;8.70;5.45;;;20.00;99.90;;;;;;5064252;28;20048;-70
2023/07/09 03:55:47;;;;;;;9.40;6.13;;;20.00;99.90;;;;;;5046251;28;20053;-70
2023/07/09 03:58:12;;;;;;;7.40;6.03;;;20.00;99.90;;;;;;5046580;28;20122;-70
2023/07/09 04:00:38;;;;;;;10.05;6.40;;;20.00;99.90;;;;;;5063673;28;20037;-70
2023/07/09 04:03:04;;;;;;;8.73;5.30;;;20.00;99.90;;;;;;5051996;28;20040;-70
2023/07/09 04:05:29;;;;;;;10.02;5.68;;;20.00;99.90;;;;;;5064310;28;20041;-70
2023/07/09 04:07:55;;;;;;;8.45;5.40;;;20.00;99.90;;;;;;5064870;28;20055;-70
2023/07/09 04:10:21;;;;;;;8.88;6.13;;;20.00;99.90;;;;;;5063621;28;20113;-70
2023/07/09 04:12:47;;;;;;;6.85;5.90;;;20.10;99.90;;;;;;5046066;28;20049;-70
2023/07/09 04:15:12;;;;;;;10.93;6.95;;;20.10;99.90;;;;;;5063444;28;20040;-70
2023/07/09 04:17:39;;;;;;;10.57;6.05;;;20.10;99.90;;;;;;5064481;28;20037;-70
2023/07/09 04:20:05;;;;;;;10.73;7.07;;;20.10;99.90;;;;;;5045706;28;20084;-70
2023/07/09 04:22:32;;;;;;;8.73;6.30;;;20.10;99.90;;;;;;5046409;28;20134;-70
2023/07/09 04:24:58;;;;;;;11.75;6.15;;;20.10;99.90;;;;;;5046638;28;20040;-70
2023/07/09 04:27:27;;;;;;;8.82;5.65;;;20.10;99.90;;;;;;5046368;28;20501;-70
2023/07/09 04:29:53;;;;;;;12.20;6.20;;;20.20;99.90;;;;;;5063166;28;20058;-70
2023/07/09 04:32:19;;;;;;;9.00;5.43;;;20.20;99.90;;;;;;5063602;28;20067;-70
2023/07/09 04:34:45;;;;;;;9.95;5.93;;;20.20;99.90;;;;;;5046074;28;20157;-70
2023/07/09 04:37:15;;;;;;;9.73;5.90;;;20.20;99.90;;;;;;5045625;28;20469;-72
2023/07/09 04:39:40;;;;;;;9.63;6.38;;;20.30;99.90;;;;;;5064301;28;20049;-72
2023/07/09 04:42:10;;;;;;;9.60;5.60;;;20.30;99.90;;;;;;5063349;28;20045;-72
2023/07/09 04:44:36;;;;;;;9.48;5.97;;;20.30;99.90;;;;;;5062996;28;20045;-73
2023/07/09 04:47:01;;;;;;;8.55;6.32;;;20.30;99.90;;;;;;5063540;28;20478;-72
2023/07/09 04:49:27;;;;;;;10.07;6.25;;;20.30;99.90;;;;;;5046293;28;20041;-72
2023/07/09 04:51:53;;;;;;;9.60;6.20;;;20.40;99.90;;;;;;5063748;28;20040;-72
2023/07/09 04:54:18;;;;;;;10.30;6.38;;;20.40;99.90;;;;;;5063942;28;20445;-72
2023/07/09 04:56:44;;;;;;;11.23;6.07;;;20.40;99.90;;;;;;5063783;28;20044;-72
2023/07/09 04:59:11;;;;;;;9.48;6.55;;;20.50;99.90;;;;;;5062448;28;20036;-72
2023/07/09 05:01:37;;;;;;;13.13;7.20;;;20.50;99.90;;;;;;5058709;28;20036;-72
2023/07/09 05:04:02;;;;;;;10.50;7.18;;;20.50;99.90;;;;;;5043603;28;20052;-72
2023/07/09 05:06:28;;;;;;;11.07;6.22;;;20.60;99.90;;;;;;5046794;28;20076;-72
2023/07/09 05:08:54;;;;;;;10.60;5.82;;;20.60;99.90;;;;;;5048151;28;20455;-72
2023/07/09 05:11:19;;;;;;;11.13;6.88;;;20.60;99.90;;;;;;5042058;28;20485;-72
2023/07/09 05:13:45;;;;;;;9.05;5.63;;;20.60;99.90;;;;;;5048793;28;20127;-72
2023/07/09 05:16:10;;;;;;;9.13;6.18;;;20.70;99.90;;;;;;5067253;28;20123;-72
2023/07/09 05:18:37;;;;;;;10.23;6.00;;;20.70;99.90;;;;;;5067888;28;20060;-72
2023/07/09 05:21:02;;;;;;;10.45;6.45;;;20.70;99.90;;;;;;5049132;28;20464;-72
2023/07/09 05:23:28;;;;;;;10.77;7.10;;;20.70;99.90;;;;;;5067852;28;20123;-72
2023/07/09 05:26:01;;;;;;;10.95;6.45;;;20.70;99.90;;;;;;5067352;28;20060;-72
2023/07/09 05:28:29;;;;;;;10.20;6.75;;;20.70;99.90;;;;;;5066716;28;20131;-72
2023/07/09 05:30:55;;;;;;;9.00;7.22;;;20.70;99.90;;;;;;5067636;28;20044;-72
2023/07/09 05:33:20;;;;;;;8.90;6.15;;;20.80;99.90;;;;;;5067097;28;20103;-72
2023/07/09 05:35:46;;;;;;;9.95;6.55;;;20.80;99.90;;;;;;5067540;28;20033;-72
2023/07/09 05:38:14;;;;;;;10.32;7.10;;;20.80;99.90;;;;;;5066847;28;20120;-72
2023/07/09 05:40:40;;;;;;;11.52;7.45;;;20.80;99.90;;;;;;5067120;28;20076;-72
2023/07/09 05:43:05;;;;;;;10.32;7.10;;;20.80;99.90;;;;;;5065035;28;20049;-73
2023/07/09 05:45:32;;;;;;;14.85;7.13;;;20.80;99.90;;;;;;5044143;28;20048;-72
2023/07/09 05:47:58;;;;;;;10.57;7.53;;;20.80;99.90;;;;;;5048714;28;20040;-72
2023/07/09 05:50:24;;;;;;;12.23;7.25;;;20.80;99.90;;;;;;5065378;28;20080;-72
2023/07/09 05:52:50;;;;;;;11.27;7.00;;;20.80;99.90;;;;;;5047003;28;20099;-72
2023/07/09 05:55:15;;;;;;;11.20;7.57;;;20.90;99.90;;;;;;5054694;28;20185;-72
2023/07/09 05:57:41;;;;;;;10.15;7.47;;;20.90;99.90;;;;;;5049580;28;20490;-72
2023/07/09 06:00:08;;;;;;;9.63;7.68;;;21.00;99.90;;;;;;5065975;28;20040;-72
2023/07/09 06:02:34;;;;;;;9.15;7.18;;;21.00;99.90;;;;;;5048470;28;20052;-72
2023/07/09 06:05:00;;;;;;;14.32;7.28;;;21.10;99.90;;;;;;5050930;28;20062;-72
2023/07/09 06:07:26;;;;;;;10.57;7.18;;;21.20;99.90;;;;;;5056362;28;20051;-72
2023/07/09 06:09:52;;;;;;;11.82;7.72;;;21.20;99.90;;;;;;5049390;28;20056;-72
2023/07/09 06:12:19;;;;;;;11.82;7.45;;;21.20;99.90;;;;;;5066276;28;20040;-72
2023/07/09 06:14:45;;;;;;;11.68;8.13;;;21.30;99.90;;;;;;5047979;28;20053;-72
2023/07/09 06:17:12;;;;;;;11.60;6.97;;;21.30;99.90;;;;;;5065584;28;20523;-72
2023/07/09 06:19:38;;;;;;;11.35;7.20;;;21.40;99.90;;;;;;5066145;28;20115;-72
2023/07/09 06:22:04;;;;;;;9.75;7.38;;;21.40;99.90;;;;;;5054258;28;20442;-72
2023/07/09 06:24:30;;;;;;;9.95;7.25;;;21.40;99.90;;;;;;5046682;28;20605;-72
2023/07/09 06:26:56;;;;;;;12.43;6.80;;;21.40;99.90;;;;;;5046450;28;20132;-72
2023/07/09 06:29:21;;;;;;;10.65;8.00;;;21.40;99.90;;;;;;5027646;28;20447;-71
2023/07/09 06:31:47;;;;;;;10.25;7.15;;;21.50;99.90;;;;;;5046390;28;20048;-71
2023/07/09 06:34:13;;;;;;;9.13;6.45;;;21.50;99.90;;;;;;5040921;28;20519;-71
2023/07/09 06:36:38;;;;;;;12.30;8.80;;;21.60;99.90;;;;;;5066334;28;20490;-71
2023/07/09 06:39:05;;;;;;;10.20;7.18;;;21.70;99.90;;;;;;5065981;28;20475;-72
2023/07/09 06:41:32;;;;;;;11.50;6.90;;;21.80;99.90;;;;;;5065962;28;20056;-74
2023/07/09 06:43:58;;;;;;;11.52;7.85;;;21.90;99.90;;;;;;5065323;28;20051;-71
2023/07/09 06:46:24;;;;;;;14.57;7.57;;;21.90;99.90;;;;;;5065191;28;20111;-72
2023/07/09 06:48:49;;;;;;;13.20;8.40;;;22.00;99.90;;;;;;5062449;28;20037;-72
2023/07/09 06:51:15;;;;;;;14.90;7.43;;;22.10;99.90;;;;;;5063058;28;20711;-71
2023/07/09 06:53:42;;;;;;;15.18;7.93;;;22.20;99.90;;;;;;5046011;28;20071;-71
2023/07/09 06:56:08;;;;;;;11.45;8.30;;;22.30;99.90;;;;;;5054376;28;20055;-72
2023/07/09 06:58:36;;;;;;;12.40;8.05;;;22.30;99.90;;;;;;5065318;28;20557;-72
2023/07/09 07:01:03;;;;;;;11.45;8.40;;;22.30;99.90;;;;;;5065892;28;20071;-72
2023/07/09 07:03:30;;;;;;;14.85;8.15;;;22.40;99.90;;;;;;5052826;28;20040;-72
2023/07/09 07:05:57;;;;;;;13.15;8.57;;;22.30;99.90;;;;;;5056807;28;20119;-72
2023/07/09 07:08:24;;;;;;;12.82;8.07;;;22.40;99.90;;;;;;5052201;28;20486;-72
2023/07/09 07:11:01;;;;;;;16.13;9.20;;;22.40;99.90;;;;;;5057907;28;20044;-72
2023/07/09 07:13:34;;;;;;;15.43;8.65;;;22.40;99.90;;;;;;5047068;28;20052;-71
2023/07/09 07:16:02;;;;;;;14.27;8.98;;;22.50;99.90;;;;;;5065222;28;20040;-71
2023/07/09 07:18:28;;;;;;;17.15;8.18;;;22.50;99.90;;;;;;5065912;28;20693;-72
2023/07/09 07:20:54;;;;;;;15.18;9.23;;;22.60;99.90;;;;;;5065060;28;20080;-72
2023/07/09 07:23:19;;;;;;;13.55;8.25;;;22.70;99.90;;;;;;5063039;28;20602;-72
2023/07/09 07:25:46;;;;;;;14.55;8.85;;;22.70;99.90;;;;;;5038894;28;20127;-72
2023/07/09 07:28:12;;;;;;;15.10;9.82;;;22.80;99.90;;;;;;5063429;28;20029;-72
2023/07/09 07:30:37;;;;;;;16.10;10.60;;;22.90;99.90;;;;;;5046642;28;20049;-71
2023/07/09 07:33:03;;;;;;;16.27;10.23;;;22.90;99.90;;;;;;5039803;28;20040;-72
2023/07/09 07:35:29;;;;;;;18.35;10.90;;;23.10;99.90;;;;;;5044428;28;20458;-72
2023/07/09 07:37:54;;;;;;;18.38;11.02;;;23.10;99.90;;;;;;5048227;28;20040;-72
2023/07/09 07:40:20;;;;;;;16.98;11.50;;;23.20;99.90;;;;;;5060868;28;20234;-72
2023/07/09 07:42:46;;;;;;;19.17;12.35;;;23.20;99.90;;;;;;5058120;28;20048;-73
2023/07/09 07:45:12;;;;;;;17.10;11.23;;;23.20;99.90;;;;;;5062477;28;20428;-72
2023/07/09 07:47:39;;;;;;;14.88;10.73;;;23.30;99.90;;;;;;5066464;28;20049;-73
2023/07/09 07:50:06;;;;;;;14.32;9.63;;;23.30;99.90;;;;;;5047639;28;20465;-73
2023/07/09 07:52:32;;;;;;;15.68;10.07;;;23.30;99.90;;;;;;5069043;28;20040;-73
2023/07/09 07:54:58;;;;;;;16.52;11.32;;;23.30;99.90;;;;;;5061465;28;20041;-72
2023/07/09 07:57:27;;;;;;;18.45;11.60;;;23.40;99.90;;;;;;5049722;28;20403;-73
2023/07/09 07:59:53;;;;;;;16.95;11.55;;;23.40;99.90;;;;;;5058704;28;20041;-72
2023/07/09 08:02:18;;;;;;;12.93;9.48;;;23.40;99.90;;;;;;5065787;28;20059;-72
2023/07/09 08:04:47;;;;;;;10.73;7.15;;;23.50;99.90;;;;;;5059358;28;20475;-72
2023/07/09 08:07:12;;;;;;;10.55;7.10;;;23.50;99.90;;;;;;5029393;28;20047;-72
2023/07/09 08:09:39;;;;;;;10.48;6.75;;;23.50;99.90;;;;;;5083447;28;20398;-72
2023/07/09 08:12:09;;;;;;;10.85;7.20;;;23.60;99.90;;;;;;5063907;28;20048;-72
2023/07/09 08:14:39;;;;;;;9.68;6.63;;;23.60;99.90;;;;;;5030887;28;20067;-72
2023/07/09 08:17:06;;;;;;;12.02;7.30;;;23.60;99.90;;;;;;5046056;28;20410;-73
2023/07/09 08:19:32;;;;;;;7.97;6.07;;;23.60;99.90;;;;;;5043772;28;20475;-73
2023/07/09 08:21:58;;;;;;;9.60;6.15;;;23.70;99.90;;;;;;5037731;28;20076;-72
2023/07/09 08:24:24;;;;;;;9.38;5.47;;;23.70;99.90;;;;;;5026501;28;20137;-72
2023/07/09 08:26:50;;;;;;;9.23;5.78;;;23.70;99.90;;;;;;5031206;28;20048;-72
2023/07/09 08:29:16;;;;;;;9.07;6.82;;;23.70;99.90;;;;;;5055575;28;20742;-72
2023/07/09 08:31:42;;;;;;;12.65;7.50;;;23.70;99.90;;;;;;5051383;28;20044;-72
2023/07/09 08:34:08;;;;;;;9.80;6.07;;;23.80;99.90;;;;;;5050894;28;20209;-73
2023/07/09 08:36:34;;;;;;;9.95;6.15;;;23.80;99.90;;;;;;5045834;28;20495;-73
2023/07/09 08:39:03;;;;;;;11.35;6.72;;;23.80;99.90;;;;;;5032272;28;20140;-74
2023/07/09 08:41:59;;;;;;;10.90;6.88;;;23.80;99.90;;;;;;5049764;28;20040;-73
2023/07/09 08:44:52;;;;;;;7.57;5.80;;;23.90;99.90;;;;;;5063303;28;20101;-73
2023/07/09 08:47:29;;;;;;;8.68;5.38;;;24.00;99.90;;;;;;5035011;28;20036;-73
2023/07/09 08:50:02;;;;;;;9.40;6.70;;;24.00;99.90;;;;;;5047114;28;20083;-73
2023/07/09 08:52:31;;;;;;;10.13;6.15;;;24.10;99.90;;;;;;5044672;28;20072;-73
2023/07/09 08:55:01;;;;;;;10.60;6.68;;;24.10;99.90;;;;;;5075469;28;20048;-72
2023/07/09 08:57:33;;;;;;;8.82;5.93;;;24.10;99.90;;;;;;5060997;28;20094;-72
2023/07/09 09:00:21;;;;;;;7.72;5.10;;;24.20;99.90;;;;;;5066833;28;20079;-72
2023/07/09 09:02:59;;;;;;;8.13;5.43;;;24.20;99.90;;;;;;5044124;28;20059;-72
2023/07/09 09:05:26;;;;;;;6.93;4.78;;;24.20;99.90;;;;;;5048306;28;20047;-71
2023/07/09 09:08:23;;;;;;;10.23;5.13;;;24.20;99.90;;;;;;5032454;28;20091;-75
2023/07/09 09:11:00;;;;;;;7.63;4.22;;;24.20;99.90;;;;;;5062289;28;20640;-74
2023/07/09 09:13:29;;;;;;;7.35;3.45;;;24.20;99.90;;;;;;5037189;28;20048;-74
2023/07/09 09:15:57;;;;;;;5.95;4.07;;;24.30;99.90;;;;;;5025074;28;20623;-74
2023/07/09 09:18:28;;;;;;;11.02;4.97;;;24.30;99.90;;;;;;5054992;28;20144;-74
2023/07/09 09:21:26;;;;;;;5.38;3.70;;;24.30;99.90;;;;;;5015592;28;20069;-74
2023/07/09 09:23:56;;;;;;;5.75;3.85;;;24.40;99.90;;;;;;5045584;28;20052;-74
2023/07/09 09:26:24;;;;;;;5.90;3.60;;;24.50;99.90;;;;;;5047228;28;20525;-75
2023/07/09 09:28:50;;;;;;;6.65;4.03;;;24.50;99.90;;;;;;5073811;28;20080;-74
2023/07/09 09:31:17;;;;;;;6.45;3.97;;;24.50;99.90;;;;;;5034836;28;20127;-75
2023/07/09 09:33:45;;;;;;;6.32;3.88;;;24.50;99.90;;;;;;5059206;28;20072;-75
2023/07/09 09:36:20;;;;;;;7.70;3.38;;;24.60;99.90;;;;;;5051999;28;20093;-75
2023/07/09 09:38:46;;;;;;;7.32;4.60;;;24.60;99.90;;;;;;5062985;28;20029;-75
2023/07/09 09:41:16;;;;;;;6.47;3.65;;;24.60;99.90;;;;;;5060930;28;20101;-75
2023/07/09 09:43:44;;;;;;;5.32;3.45;;;24.60;99.90;;;;;;5062561;28;20048;-75
2023/07/09 09:46:20;;;;;;;7.95;3.60;;;24.60;99.90;;;;;;5031276;28;20071;-75
2023/07/09 09:48:53;;;;;;;6.30;3.83;;;24.70;99.90;;;;;;5031153;28;20094;-75
2023/07/09 09:51:19;;;;;;;4.75;3.10;;;24.70;99.90;;;;;;5035016;28;20543;-75
2023/07/09 09:53:49;;;;;;;4.88;3.40;;;24.80;99.90;;;;;;5058986;28;20123;-74
2023/07/09 09:56:25;;;;;;;5.65;3.60;;;24.90;99.90;;;;;;5058105;28;20048;-74
2023/07/09 09:58:55;;;;;;;5.22;3.50;;;24.80;99.90;;;;;;5042474;28;20494;-74
2023/07/09 10:01:26;;;;;;;5.32;3.83;;;24.90;99.90;;;;;;5057677;28;20075;-74
2023/07/09 10:03:56;;;;;;;3.83;3.13;;;24.90;99.90;;;;;;5067884;28;20044;-74
2023/07/09 10:06:41;;;;;;;7.28;3.47;;;24.90;99.90;;;;;;5049980;28;20043;-74
2023/07/09 10:09:43;;;;;;;5.90;3.10;;;24.90;99.90;;;;;;5066126;28;20045;-74
2023/07/09 10:12:26;;;;;;;4.35;3.20;;;24.90;99.90;;;;;;5042566;28;20097;-74
2023/07/09 10:15:04;;;;;;;6.32;3.45;;;25.00;99.90;;;;;;5064824;28;20040;-72
2023/07/09 10:18:03;;;;;;;8.23;4.25;;;25.00;99.90;;;;;;5063056;28;20085;-75
2023/07/09 10:20:37;;;;;;;6.75;3.65;;;25.00;99.90;;;;;;5052101;28;20036;-74
2023/07/09 10:23:13;;;;;;;4.20;3.10;;;25.10;99.90;;;;;;5056924;28;20048;-74
2023/07/09 10:25:52;;;;;;;9.60;3.50;;;25.10;99.90;;;;;;5063208;28;20040;-74
2023/07/09 10:28:24;;;;;;;5.32;3.38;;;25.10;99.90;;;;;;5052553;28;20051;-73
2023/07/09 10:31:08;;;;;;;7.07;3.78;;;25.20;99.90;;;;;;5052313;28;20059;-73
2023/07/09 10:33:47;;;;;;;4.45;3.10;;;25.10;99.90;;;;;;5061705;28;20051;-73
2023/07/09 10:36:25;;;;;;;6.43;3.90;;;25.10;99.90;;;;;;5048861;28;20063;-75
2023/07/09 10:39:08;;;;;;;4.53;3.45;;;25.10;99.90;;;;;;5063328;28;20044;-73
2023/07/09 10:41:36;;;;;;;5.05;3.45;;;25.10;99.90;;;;;;5032561;28;20084;-75
2023/07/09 10:44:44;;;;;;;4.75;3.95;;;25.20;99.90;;;;;;5068664;28;20068;-73
2023/07/09 10:47:34;;;;;;;7.15;2.78;;;25.20;99.90;;;;;;5039029;28;20064;-76
2023/07/09 10:50:03;;;;;;;5.32;2.95;;;25.20;99.90;;;;;;5024782;28;20048;-73
2023/07/09 10:52:41;;;;;;;6.28;3.75;;;25.30;99.90;;;;;;5044689;28;20041;-73
2023/07/09 10:55:23;;;;;;;7.07;3.63;;;25.20;99.90;;;;;;5060982;28;20048;-73
2023/07/09 10:58:09;;;;;;;4.95;3.30;;;25.30;99.90;;;;;;5045125;28;20405;-73
2023/07/09 11:00:40;;;;;;;5.75;3.10;;;25.30;99.90;;;;;;5054287;28;20040;-73
2023/07/09 11:03:39;;;;;;;6.38;3.78;;;25.30;99.90;;;;;;5064141;28;20449;-73
2023/07/09 11:06:13;;;;;;;6.43;3.58;;;25.40;99.90;;;;;;5028189;28;20075;-73
2023/07/09 11:08:40;;;;;;;5.93;3.10;;;25.40;99.90;;;;;;5064452;28;20044;-73
2023/07/09 11:11:13;;;;;;;5.03;3.25;;;25.50;99.90;;;;;;5075513;28;20059;-73
2023/07/09 11:13:45;;;;;;;4.32;3.33;;;25.50;99.90;;;;;;5079424;28;20071;-73
2023/07/09 11:16:25;;;;;;;5.28;3.15;;;25.50;99.90;;;;;;5045129;28;20036;-72
2023/07/09 11:18:58;;;;;;;6.15;2.80;;;25.50;99.90;;;;;;5034550;28;20045;-73
2023/07/09 11:21:24;;;;;;;5.07;2.42;;;25.60;99.90;;;;;;5046402;28;20041;-73
2023/07/09 11:23:56;;;;;;;4.40;2.80;;;25.60;99.90;;;;;;5054166;28;20060;-73
2023/07/09 11:26:28;;;;;;;5.22;3.45;;;25.70;99.90;;;;;;5041865;28;20071;-72
2023/07/09 11:29:04;;;;;;;6.00;3.63;;;25.80;99.90;;;;;;5059462;28;20147;-73
2023/07/09 11:31:38;;;;;;;4.53;3.17;;;25.80;99.90;;;;;;5045863;28;20048;-75
2023/07/09 11:34:17;;;;;;;4.72;2.95;;;25.80;99.90;;;;;;5063984;28;20166;-71
2023/07/09 11:36:57;;;;;;;3.35;2.38;;;25.90;99.90;;;;;;5044631;28;20089;-72
2023/07/09 11:39:41;;;;;;;3.53;2.78;;;25.90;99.90;;;;;;5035232;28;20048;-73
2023/07/09 11:42:30;;;;;;;3.13;2.38;;;25.90;99.90;;;;;;5064313;28;20044;-73
2023/07/09 11:45:10;;;;;;;4.15;2.20;;;25.90;99.90;;;;;;5056841;28;20041;-71
2023/07/09 11:47:56;;;;;;;9.40;3.33;;;25.90;99.90;;;;;;5055304;28;20045;-72
2023/07/09 11:50:28;;;;;;;5.15;2.33;;;25.90;99.90;;;;;;5059520;28;20056;-72
2023/07/09 11:53:12;;;;;;;3.67;2.47;;;25.90;99.90;;;;;;5038164;28;20045;-72
2023/07/09 11:55:43;;;;;;;5.22;3.03;;;26.00;99.90;;;;;;5058730;28;20060;-73
2023/07/09 11:58:17;;;;;;;5.40;2.83;;;26.00;99.90;;;;;;5057027;28;20432;-72
2023/07/09 12:00:54;;;;;;;5.47;3.10;;;26.00;99.90;;;;;;5072494;28;20418;-72
2023/07/09 12:03:25;;;;;;;6.15;2.97;;;26.10;99.90;;;;;;5039316;28;20036;-72
2023/07/09 12:05:56;;;;;;;5.43;2.50;;;26.10;99.90;;;;;;5046558;28;20483;-73
2023/07/09 12:08:40;;;;;;;4.57;3.13;;;26.10;99.90;;;;;;5062775;28;20090;-73
2023/07/09 12:11:06;;;;;;;4.97;2.88;;;26.10;99.90;;;;;;5040780;28;20660;-73
2023/07/09 12:13:39;;;;;;;5.60;2.40;;;26.20;99.90;;;;;;5063074;28;20162;-72
2023/07/09 12:16:18;;;;;;;4.93;2.67;;;26.20;99.90;;;;;;5060410;28;20468;-74
2023/07/09 12:18:44;;;;;;;7.10;3.05;;;26.30;99.90;;;;;;5059532;28;20049;-73
2023/07/09 12:21:10;;;;;;;3.90;3.13;;;26.40;99.90;;;;;;5061963;28;20392;-72
2023/07/09 12:23:36;;;;;;;4.07;2.35;;;26.40;99.90;;;;;;5061255;28;20043;-72
2023/07/09 12:26:03;;;;;;;3.65;2.65;;;26.40;99.90;;;;;;5045635;28;20032;-72
2023/07/09 12:28:29;;;;;;;3.90;2.63;;;26.40;99.90;;;;;;5052731;28;20037;-71
2023/07/09 12:30:55;;;;;;;4.05;2.80;;;26.50;99.90;;;;;;5050650;28;20040;-72
2023/07/09 12:33:23;;;;;;;4.53;2.53;;;26.50;99.90;;;;;;5060482;28;20048;-72
2023/07/09 12:35:56;;;;;;;3.80;2.40;;;26.50;99.90;;;;;;5059892;28;20133;-72
2023/07/09 12:38:24;;;;;;;4.28;2.47;;;26.40;99.90;;;;;;5050644;28;20040;-72
2023/07/09 12:40:51;;;;;;;3.83;2.60;;;26.40;99.90;;;;;;5039787;28;20521;-72
2023/07/09 12:43:28;;;;;;;3.40;2.58;;;26.50;99.90;;;;;;5064635;28;20040;-72
2023/07/09 12:45:54;;;;;;;3.40;2.72;;;26.50;99.90;;;;;;5061687;28;20060;-73
2023/07/09 12:48:26;;;;;;;4.95;2.53;;;26.50;99.90;;;;;;5053138;28;20086;-72
2023/07/09 12:50:55;;;;;;;7.63;2.63;;;26.50;99.90;;;;;;5063515;28;20611;-72
2023/07/09 12:53:26;;;;;;;5.28;3.00;;;26.50;99.90;;;;;;5022328;28;20471;-72
2023/07/09 12:55:54;;;;;;;3.25;2.30;;;26.50;99.90;;;;;;5057946;28;20059;-73